createdAt,value
2018-08-07T00:01:42.914Z,54.96
2018-08-07T00:04:08.927Z,54.96
2018-08-07T00:06:34.942Z,54.99
2018-08-07T00:09:00.964Z,54.99
2018-08-07T00:11:26.972Z,54.97
2018-08-07T00:13:52.986Z,54.96
2018-08-07T00:16:19.002Z,54.99
2018-08-07T00:18:45.012Z,55.00
2018-08-07T00:21:11.025Z,54.97
2018-08-07T00:23:37.033Z,55.00
2018-08-07T00:26:03.046Z,55.00
2018-08-07T00:28:29.064Z,55.00
2018-08-07T00:30:55.074Z,55.00
2018-08-07T00:33:21.087Z,55.03
2018-08-07T00:35:47.098Z,55.04
2018-08-07T00:38:13.116Z,55.04
2018-08-07T00:40:39.122Z,55.04
2018-08-07T00:43:05.135Z,55.04
2018-08-07T00:45:31.140Z,55.02
2018-08-07T00:47:57.164Z,55.02
2018-08-07T00:50:23.168Z,55.06
2018-08-07T00:52:49.186Z,55.07
2018-08-07T00:55:15.194Z,55.04
2018-08-07T00:57:41.201Z,55.06
2018-08-07T01:00:07.248Z,55.06
2018-08-07T01:02:33.255Z,55.08
2018-08-07T01:04:59.266Z,55.06
2018-08-07T01:07:25.277Z,55.06
2018-08-07T01:09:51.284Z,55.05
2018-08-07T01:12:17.298Z,55.03
2018-08-07T01:14:43.300Z,55.03
2018-08-07T01:17:09.309Z,55.05
2018-08-07T01:19:35.328Z,55.03
2018-08-07T01:22:01.339Z,55.03
2018-08-07T01:24:27.339Z,55.04
2018-08-07T01:26:53.427Z,55.04
2018-08-07T01:29:19.365Z,55.05
2018-08-07T01:31:45.375Z,55.04
2018-08-07T01:34:11.386Z,55.07
2018-08-07T01:36:37.400Z,55.05
2018-08-07T01:39:03.417Z,55.05
2018-08-07T01:41:29.421Z,55.05
2018-08-07T01:43:55.490Z,55.04
2018-08-07T01:46:21.502Z,55.04
2018-08-07T01:48:47.508Z,55.04
2018-08-07T01:51:13.519Z,55.03
2018-08-07T01:53:39.537Z,55.03
2018-08-07T01:56:05.552Z,55.03
2018-08-07T01:58:31.567Z,55.02
2018-08-07T02:00:57.569Z,54.99
2018-08-07T02:03:23.576Z,55.02
2018-08-07T02:05:49.594Z,55.02
2018-08-07T02:08:15.598Z,55.04
2018-08-07T02:10:41.612Z,55.02
2018-08-07T02:13:07.658Z,55.01
2018-08-07T02:15:33.675Z,55.00
2018-08-07T02:17:59.679Z,55.04
2018-08-07T02:20:25.698Z,55.03
2018-08-07T02:22:51.704Z,55.04
2018-08-07T02:25:17.714Z,55.02
2018-08-07T02:27:43.724Z,55.01
2018-08-07T02:30:09.735Z,55.02
2018-08-07T02:32:35.736Z,55.05
2018-08-07T02:35:01.762Z,55.05
2018-08-07T02:37:27.772Z,55.03
2018-08-07T02:39:53.787Z,55.04
2018-08-07T02:42:19.800Z,55.03
2018-08-07T02:44:45.815Z,55.00
2018-08-07T02:47:11.828Z,55.00
2018-08-07T02:49:37.842Z,55.01
2018-08-07T02:52:03.850Z,55.06
2018-08-07T02:54:29.862Z,55.05
2018-08-07T02:56:55.880Z,55.05
2018-08-07T02:59:21.886Z,55.05
2018-08-07T03:01:47.899Z,55.02
2018-08-07T03:04:13.911Z,55.03
2018-08-07T03:06:39.923Z,55.02
2018-08-07T03:09:05.937Z,55.03
2018-08-07T03:11:31.953Z,55.04
2018-08-07T03:13:57.962Z,55.03
2018-08-07T03:16:23.971Z,55.04
2018-08-07T03:18:49.982Z,55.05
2018-08-07T03:21:15.990Z,55.04
2018-08-07T03:23:42.012Z,55.02
2018-08-07T03:26:08.027Z,55.02
2018-08-07T03:28:34.030Z,55.03
2018-08-07T03:31:00.044Z,55.02
2018-08-07T03:33:26.046Z,55.00
2018-08-07T03:35:52.054Z,55.02
2018-08-07T03:38:18.056Z,54.99
2018-08-07T03:40:44.097Z,54.99
2018-08-07T03:43:10.136Z,54.99
2018-08-07T03:45:36.173Z,54.99
2018-08-07T03:48:02.180Z,55.00
2018-08-07T03:50:28.185Z,55.01
2018-08-07T03:52:54.202Z,55.01
2018-08-07T03:55:20.201Z,55.02
2018-08-07T03:57:46.213Z,55.03
2018-08-07T04:00:12.216Z,55.02
2018-08-07T04:02:38.227Z,55.00
2018-08-07T04:05:04.243Z,55.00
2018-08-07T04:07:30.237Z,55.01
2018-08-07T04:09:56.246Z,54.99
2018-08-07T04:12:22.344Z,54.98
2018-08-07T04:14:48.372Z,54.97
2018-08-07T04:17:14.385Z,54.97
2018-08-07T04:19:40.399Z,54.98
2018-08-07T04:22:06.410Z,54.97
2018-08-07T04:24:32.483Z,54.96
2018-08-07T04:26:58.494Z,54.96
2018-08-07T04:29:24.526Z,54.94
2018-08-07T04:31:50.544Z,54.95
2018-08-07T04:34:16.596Z,54.94
2018-08-07T04:36:42.569Z,54.99
2018-08-07T04:39:08.596Z,55.10
2018-08-07T04:41:34.659Z,55.14
2018-08-07T04:44:00.679Z,55.00
2018-08-07T04:46:26.697Z,55.08
2018-08-07T04:48:52.752Z,55.18
2018-08-07T04:51:18.765Z,55.14
2018-08-07T04:53:44.826Z,55.32
2018-08-07T04:56:10.836Z,55.31
2018-08-07T04:58:36.848Z,55.28
2018-08-07T05:01:03.126Z,55.26
2018-08-07T05:03:31.028Z,55.14
2018-08-07T05:05:57.036Z,55.31
2018-08-07T05:08:23.089Z,55.21
2018-08-07T05:10:49.147Z,55.16
2018-08-07T05:13:15.106Z,55.20
2018-08-07T05:15:41.187Z,55.26
2018-08-07T05:18:07.228Z,55.30
2018-08-07T05:20:33.254Z,55.16
2018-08-07T05:22:59.287Z,55.23
2018-08-07T05:25:25.295Z,54.81
2018-08-07T05:27:51.329Z,54.77
2018-08-07T05:30:17.331Z,54.62
2018-08-07T05:32:43.341Z,54.30
2018-08-07T05:35:09.360Z,54.72
2018-08-07T05:37:35.406Z,54.58
2018-08-07T05:40:01.540Z,54.66
2018-08-07T05:42:27.638Z,54.72
2018-08-07T05:44:53.582Z,54.68
2018-08-07T05:47:19.609Z,54.77
2018-08-07T05:49:45.625Z,54.74
2018-08-07T05:52:11.643Z,54.78
2018-08-07T05:54:37.738Z,54.71
2018-08-07T05:57:03.808Z,54.91
2018-08-07T05:59:29.783Z,54.50
2018-08-07T06:01:55.796Z,54.86
2018-08-07T06:04:21.840Z,54.88
2018-08-07T06:06:47.845Z,55.00
2018-08-07T06:09:13.870Z,54.74
2018-08-07T06:11:39.885Z,55.10
2018-08-07T06:14:05.943Z,54.93
2018-08-07T06:16:31.951Z,55.14
2018-08-07T06:18:57.974Z,55.04
2018-08-07T06:21:23.980Z,55.16
2018-08-07T06:23:49.990Z,55.08
2018-08-07T06:26:16.009Z,55.14
2018-08-07T06:28:42.077Z,55.12
2018-08-07T06:31:08.094Z,55.03
2018-08-07T06:33:34.100Z,55.02
2018-08-07T06:36:00.138Z,55.17
2018-08-07T06:38:26.172Z,55.24
2018-08-07T06:40:52.291Z,55.16
2018-08-07T06:43:18.325Z,55.26
2018-08-07T06:45:44.360Z,55.29
2018-08-07T06:48:10.504Z,55.29
2018-08-07T06:50:36.551Z,55.29
2018-08-07T06:53:04.001Z,55.38
2018-08-07T06:55:30.022Z,55.34
2018-08-07T06:57:56.025Z,55.33
2018-08-07T07:00:23.238Z,55.38
2018-08-07T07:02:49.297Z,55.56
2018-08-07T07:05:15.310Z,55.68
2018-08-07T07:07:41.374Z,55.46
2018-08-07T07:10:07.481Z,55.81
2018-08-07T07:12:33.458Z,56.19
2018-08-07T07:14:59.512Z,56.11
2018-08-07T07:17:25.493Z,56.14
2018-08-07T07:19:51.511Z,56.01
2018-08-07T07:22:17.797Z,56.17
2018-08-07T07:24:43.812Z,55.90
2018-08-07T08:25:33.837Z,55.04
2018-08-07T08:27:59.901Z,54.96
2018-08-07T08:30:25.871Z,54.89
2018-08-07T08:32:51.895Z,54.77
2018-08-07T08:35:18.001Z,54.68
2018-08-07T08:37:44.036Z,54.58
2018-08-07T08:40:10.043Z,54.54
2018-08-07T08:42:36.068Z,54.49
2018-08-07T08:45:02.086Z,54.46
2018-08-07T08:47:28.094Z,54.50
2018-08-07T08:49:54.114Z,54.43
2018-08-07T08:52:20.135Z,54.43
2018-08-07T08:54:46.158Z,54.42
2018-08-07T08:57:12.191Z,54.37
2018-08-07T08:59:38.234Z,54.51
2018-08-07T09:02:04.237Z,54.57
2018-08-07T09:04:30.259Z,54.51
2018-08-07T09:06:56.266Z,54.49
2018-08-07T09:09:22.311Z,55.29
2018-08-07T09:11:48.331Z,55.33
2018-08-07T09:14:14.340Z,55.47
2018-08-07T09:16:40.372Z,55.42
2018-08-07T09:19:06.394Z,55.45
2018-08-07T09:21:32.406Z,55.54
2018-08-07T09:23:58.409Z,55.57
2018-08-07T09:26:24.432Z,54.95
2018-08-07T09:28:50.452Z,55.15
2018-08-07T09:31:16.451Z,55.21
2018-08-07T09:33:42.503Z,55.47
2018-08-07T09:36:08.518Z,55.47
2018-08-07T09:38:34.525Z,55.37
2018-08-07T09:41:00.533Z,55.40
2018-08-07T09:43:26.561Z,55.35
2018-08-07T09:45:52.594Z,55.23
2018-08-07T09:48:18.651Z,55.09
2018-08-07T09:50:44.876Z,55.22
2018-08-07T09:53:10.886Z,54.72
2018-08-07T09:55:36.897Z,54.64
2018-08-07T09:58:02.906Z,54.52
2018-08-07T10:00:28.915Z,54.38
2018-08-07T10:02:55.071Z,54.16
2018-08-07T10:05:21.184Z,54.62
2018-08-07T10:07:47.093Z,54.47
2018-08-07T10:10:13.110Z,54.57
2018-08-07T10:12:39.259Z,53.85
2018-08-07T10:15:05.225Z,54.51
2018-08-07T10:17:31.261Z,53.80
2018-08-07T10:19:57.275Z,54.15
2018-08-07T10:22:23.281Z,53.98
2018-08-07T10:24:49.292Z,54.36
2018-08-07T10:27:15.340Z,54.11
2018-08-07T10:29:41.340Z,54.36
2018-08-07T10:32:07.348Z,54.45
2018-08-07T10:34:33.363Z,54.54
2018-08-07T10:36:59.410Z,54.34
2018-08-07T10:39:25.458Z,54.12
2018-08-07T10:41:51.469Z,54.00
2018-08-07T10:44:17.626Z,53.99
2018-08-07T10:46:43.489Z,54.15
2018-08-07T10:49:09.523Z,54.09
2018-08-07T10:51:35.550Z,53.94
2018-08-07T10:54:01.561Z,53.86
2018-08-07T10:56:27.600Z,53.83
2018-08-07T10:58:53.592Z,53.87
2018-08-07T11:01:19.625Z,53.77
2018-08-07T11:03:45.647Z,53.78
2018-08-07T11:06:11.686Z,53.67
2018-08-07T11:08:37.700Z,53.72
2018-08-07T11:11:03.716Z,53.98
2018-08-07T11:13:29.727Z,53.72
2018-08-07T11:15:55.748Z,53.70
2018-08-07T11:18:21.751Z,53.74
2018-08-07T11:20:47.783Z,53.73
2018-08-07T11:23:13.805Z,53.71
2018-08-07T11:25:39.813Z,53.53
2018-08-07T11:28:05.833Z,53.53
2018-08-07T11:30:31.892Z,53.41
2018-08-07T11:32:57.905Z,53.52
2018-08-07T11:35:23.910Z,53.27
2018-08-07T11:37:49.926Z,53.27
2018-08-07T11:40:15.939Z,53.52
2018-08-07T11:42:42.011Z,53.38
2018-08-07T11:45:08.023Z,53.33
2018-08-07T11:47:34.083Z,52.69
2018-08-07T11:50:00.095Z,52.61
2018-08-07T11:52:26.110Z,52.40
2018-08-07T11:54:52.120Z,52.16
2018-08-07T11:57:18.129Z,52.12
2018-08-07T11:59:44.231Z,52.14
2018-08-07T12:02:10.224Z,52.35
2018-08-07T12:04:36.233Z,52.49
2018-08-07T12:07:02.264Z,52.56
2018-08-07T12:09:28.310Z,52.87
2018-08-07T12:11:54.374Z,52.33
2018-08-07T12:14:20.377Z,52.44
2018-08-07T12:16:46.398Z,52.63
2018-08-07T12:19:12.415Z,53.22
2018-08-07T12:21:38.437Z,52.63
2018-08-07T12:24:04.453Z,52.35
2018-08-07T12:26:30.643Z,52.24
2018-08-07T12:28:56.668Z,52.52
2018-08-07T12:31:22.689Z,52.43
2018-08-07T12:33:48.704Z,52.47
2018-08-07T12:36:14.725Z,52.05
2018-08-07T12:38:40.746Z,51.87
2018-08-07T12:41:06.756Z,52.42
2018-08-07T12:43:32.816Z,52.64
2018-08-07T12:45:58.822Z,52.03
2018-08-07T12:48:24.829Z,52.56
2018-08-07T12:50:50.855Z,52.21
2018-08-07T12:53:16.948Z,52.20
2018-08-07T12:55:42.951Z,52.13
2018-08-07T12:58:08.963Z,51.25
2018-08-07T13:00:34.983Z,51.68
2018-08-07T13:03:01.004Z,51.42
2018-08-07T13:05:27.070Z,51.56
2018-08-07T13:07:53.093Z,52.28
2018-08-07T13:10:19.121Z,51.34
2018-08-07T13:12:45.139Z,51.43
2018-08-07T13:15:11.369Z,52.06
2018-08-07T13:17:37.443Z,51.69
2018-08-07T13:20:03.428Z,51.37
2018-08-07T13:22:29.445Z,52.12
2018-08-07T13:24:56.091Z,52.54
2018-08-07T13:27:22.159Z,51.58
2018-08-07T13:29:48.186Z,51.64
2018-08-07T13:32:14.824Z,51.37
2018-08-07T13:34:40.834Z,51.29
2018-08-07T13:37:06.930Z,52.13
2018-08-07T13:39:32.875Z,51.75
2018-08-07T13:41:58.892Z,51.74
2018-08-07T13:44:24.925Z,51.83
2018-08-07T13:46:51.129Z,51.96
2018-08-07T13:49:17.148Z,52.00
2018-08-07T13:51:43.186Z,51.91
2018-08-07T13:54:09.231Z,52.10
2018-08-07T13:56:35.238Z,52.14
2018-08-07T13:59:01.263Z,52.16
2018-08-07T14:01:27.338Z,52.28
2018-08-07T14:03:53.353Z,52.52
2018-08-07T14:06:19.863Z,52.86
2018-08-07T14:08:45.884Z,53.07
2018-08-07T14:11:11.896Z,52.80
2018-08-07T14:13:37.935Z,52.73
2018-08-07T14:16:03.950Z,53.19
2018-08-07T14:18:29.966Z,52.61
2018-08-07T14:20:55.975Z,52.63
2018-08-07T14:23:22.002Z,53.14
2018-08-07T14:25:47.992Z,52.85
2018-08-07T14:28:14.343Z,52.80
2018-08-07T14:30:41.092Z,53.33
2018-08-07T14:33:07.699Z,53.44
2018-08-07T14:35:36.920Z,53.59
2018-08-07T14:38:03.277Z,53.65
2018-08-07T14:40:30.527Z,53.47
2018-08-07T14:42:58.012Z,53.14
2018-08-07T14:45:30.641Z,53.37
2018-08-07T14:48:07.499Z,53.49
2018-08-07T14:50:48.159Z,53.39
2018-08-07T14:53:14.527Z,53.40
2018-08-07T14:55:40.555Z,53.54
2018-08-07T14:58:06.963Z,53.53
2018-08-07T15:00:32.987Z,53.43
2018-08-07T15:02:59.003Z,53.54
2018-08-07T15:05:25.043Z,53.57
2018-08-07T15:07:51.095Z,53.74
2018-08-07T15:10:17.251Z,53.85
2018-08-07T15:12:45.564Z,53.85
2018-08-07T15:15:11.628Z,53.66
2018-08-07T15:17:37.640Z,53.81
2018-08-07T15:20:03.723Z,53.87
2018-08-07T15:22:29.705Z,53.98
2018-08-07T15:24:55.780Z,53.82
2018-08-07T15:27:21.817Z,54.04
2018-08-07T15:29:47.865Z,53.85
2018-08-07T15:32:13.894Z,54.07
2018-08-07T15:34:40.017Z,53.91
2018-08-07T15:37:06.032Z,53.90
2018-08-07T15:39:32.057Z,53.96
2018-08-07T15:41:58.071Z,53.92
2018-08-07T15:44:24.113Z,53.96
2018-08-07T15:46:50.135Z,53.99
2018-08-07T15:49:16.151Z,53.83
2018-08-07T15:51:42.168Z,53.84
2018-08-07T15:54:08.187Z,53.81
2018-08-07T15:56:34.218Z,54.25
2018-08-07T15:59:00.325Z,54.59
2018-08-07T16:01:26.386Z,54.42
2018-08-07T16:03:52.390Z,54.19
2018-08-07T16:06:18.414Z,54.15
2018-08-07T16:08:44.437Z,54.17
2018-08-07T16:11:10.487Z,54.14
2018-08-07T16:13:36.522Z,54.22
2018-08-07T16:16:02.618Z,54.21
2018-08-07T16:18:28.745Z,54.17
2018-08-07T16:20:54.807Z,54.25
2018-08-07T16:23:20.828Z,54.27
2018-08-07T16:25:46.885Z,54.57
2018-08-07T16:28:12.919Z,54.53
2018-08-07T16:30:38.942Z,54.58
2018-08-07T16:33:05.000Z,54.62
2018-08-07T16:35:31.048Z,54.74
2018-08-07T16:37:57.043Z,54.62
2018-08-07T16:40:23.063Z,54.86
2018-08-07T16:42:49.089Z,54.88
2018-08-07T16:45:15.261Z,55.16
2018-08-07T16:47:41.281Z,54.94
2018-08-07T16:50:07.304Z,55.15
2018-08-07T16:52:33.333Z,54.67
2018-08-07T16:54:59.349Z,54.71
2018-08-07T16:57:25.362Z,54.67
2018-08-07T16:59:51.394Z,54.61
2018-08-07T17:02:17.413Z,54.56
2018-08-07T17:04:43.436Z,54.47
2018-08-07T17:07:09.460Z,54.36
2018-08-07T17:09:35.476Z,54.51
2018-08-07T17:12:01.512Z,54.63
2018-08-07T17:14:27.526Z,54.60
2018-08-07T17:16:53.547Z,54.55
2018-08-07T17:19:19.563Z,54.54
2018-08-07T17:21:45.602Z,54.60
2018-08-07T17:24:11.621Z,54.69
2018-08-07T17:26:37.640Z,54.66
2018-08-07T17:29:03.662Z,54.73
2018-08-07T17:31:29.697Z,54.55
2018-08-07T17:33:55.720Z,54.55
2018-08-07T17:36:21.751Z,54.56
2018-08-07T17:38:47.781Z,54.56
2018-08-07T17:41:13.976Z,54.66
2018-08-07T17:43:39.953Z,54.76
2018-08-07T17:46:06.016Z,54.65
2018-08-07T17:48:32.058Z,54.75
2018-08-07T17:50:58.123Z,54.91
2018-08-07T17:53:24.249Z,54.90
2018-08-07T17:55:50.266Z,54.99
2018-08-07T17:58:16.293Z,55.00
2018-08-07T18:00:42.322Z,55.00
2018-08-07T18:03:08.324Z,54.99
2018-08-07T18:05:34.467Z,55.16
2018-08-07T18:08:00.552Z,55.21
2018-08-07T18:10:26.637Z,55.12
2018-08-07T18:12:52.656Z,55.11
2018-08-07T18:15:18.680Z,55.19
2018-08-07T18:17:45.286Z,55.29
2018-08-07T18:20:19.193Z,55.26
2018-08-07T18:23:01.099Z,55.22
2018-08-07T18:25:27.800Z,55.27
2018-08-07T18:27:53.859Z,55.44
2018-08-07T18:30:19.912Z,55.34
2018-08-07T18:32:45.981Z,55.34
2018-08-07T18:35:11.947Z,55.40
2018-08-07T18:37:38.358Z,55.39
2018-08-07T18:40:05.233Z,55.53
2018-08-07T18:42:33.592Z,55.52
2018-08-07T18:44:59.600Z,55.41
2018-08-07T18:47:25.888Z,55.47
2018-08-07T18:49:51.906Z,55.65
2018-08-07T18:52:19.934Z,55.61
2018-08-07T18:54:45.991Z,55.69
2018-08-07T18:57:18.631Z,55.63
2018-08-07T18:59:44.577Z,56.04
2018-08-07T19:02:11.083Z,55.78
2018-08-07T19:04:37.135Z,55.97
2018-08-07T19:07:03.153Z,55.88
2018-08-07T19:09:29.252Z,56.12
2018-08-07T19:11:55.222Z,56.28
2018-08-07T19:14:21.239Z,56.25
2018-08-07T19:16:47.322Z,55.91
2018-08-07T19:19:13.327Z,56.19
2018-08-07T19:21:39.382Z,55.94
2018-08-07T19:24:05.399Z,55.93
2018-08-07T19:26:31.424Z,56.19
2018-08-07T19:28:57.457Z,56.07
2018-08-07T19:31:23.501Z,56.00
2018-08-07T19:33:49.521Z,56.00
2018-08-07T19:36:16.545Z,56.00
2018-08-07T19:38:42.779Z,56.10
2018-08-07T19:41:09.279Z,56.10
2018-08-07T19:43:35.296Z,56.07
2018-08-07T19:46:01.384Z,55.96
2018-08-07T19:48:27.759Z,55.96
2018-08-07T19:50:53.881Z,56.03
2018-08-07T19:53:19.897Z,56.02
2018-08-07T19:55:46.083Z,55.98
2018-08-07T19:58:11.932Z,55.88
2018-08-07T20:00:37.959Z,56.12
2018-08-07T20:03:03.986Z,56.01
2018-08-07T20:05:30.017Z,56.18
2018-08-07T20:07:56.023Z,56.25
2018-08-07T20:10:24.266Z,56.29
2018-08-07T20:12:50.281Z,56.06
2018-08-07T20:15:16.294Z,56.04
2018-08-07T20:17:42.356Z,56.28
2018-08-07T20:20:08.361Z,56.31
2018-08-07T20:22:34.406Z,56.34
2018-08-07T20:25:00.415Z,56.10
2018-08-07T20:27:26.453Z,56.05
2018-08-07T20:29:52.474Z,56.28
2018-08-07T20:32:18.498Z,56.25
2018-08-07T20:34:44.502Z,56.09
2018-08-07T20:37:10.515Z,56.25
2018-08-07T20:39:36.526Z,56.04
2018-08-07T20:42:02.586Z,56.44
2018-08-07T20:44:28.610Z,56.46
2018-08-07T20:46:54.714Z,56.59
2018-08-07T20:49:20.746Z,56.36
2018-08-07T20:51:46.872Z,56.50
2018-08-07T20:54:12.892Z,56.52
2018-08-07T20:56:38.900Z,56.64
2018-08-07T20:59:14.027Z,56.46
2018-08-07T21:01:40.234Z,56.51
2018-08-07T21:04:06.243Z,56.27
2018-08-07T21:06:32.268Z,56.35
2018-08-07T21:08:59.377Z,56.33
2018-08-07T21:11:26.133Z,56.29
2018-08-07T21:13:52.620Z,56.26
2018-08-07T21:16:18.655Z,56.28
2018-08-07T21:18:44.651Z,56.27
2018-08-07T21:21:10.670Z,56.14
2018-08-07T21:23:38.046Z,56.27
2018-08-07T21:26:04.058Z,56.20
2018-08-07T21:28:30.143Z,56.22
2018-08-07T21:30:56.174Z,56.17
2018-08-07T21:33:22.830Z,56.43
2018-08-07T21:35:48.811Z,56.31
2018-08-07T21:38:15.148Z,56.32
2018-08-07T21:40:41.229Z,56.43
2018-08-07T21:43:07.250Z,56.46
2018-08-07T21:45:33.312Z,56.28
2018-08-07T21:47:59.365Z,56.35
2018-08-07T21:50:25.404Z,56.25
2018-08-07T21:52:51.416Z,56.27
2018-08-07T21:55:17.434Z,56.21
2018-08-07T21:57:43.458Z,56.25
2018-08-07T22:00:09.525Z,56.24
2018-08-07T22:02:35.534Z,56.20
2018-08-07T22:05:01.557Z,56.24
2018-08-07T22:07:27.597Z,56.23
2018-08-07T22:09:53.602Z,56.32
2018-08-07T22:12:19.609Z,56.35
2018-08-07T22:14:45.623Z,56.27
2018-08-07T22:17:11.637Z,56.25
2018-08-07T22:19:37.649Z,56.21
2018-08-07T22:22:03.675Z,56.41
2018-08-07T22:24:29.686Z,56.30
2018-08-07T22:26:55.701Z,56.37
2018-08-07T22:29:21.723Z,56.43
2018-08-07T22:31:47.770Z,56.58
2018-08-07T22:34:13.806Z,56.76
2018-08-07T22:36:39.846Z,56.69
2018-08-07T22:39:05.878Z,56.71
2018-08-07T22:41:31.891Z,56.70
2018-08-07T22:43:57.898Z,56.76
2018-08-07T22:46:23.906Z,56.77
2018-08-07T22:48:49.917Z,56.82
2018-08-07T22:51:15.932Z,56.80
2018-08-07T22:53:41.952Z,56.80
2018-08-07T22:56:07.966Z,56.83
2018-08-07T22:58:33.978Z,56.91
2018-08-07T23:00:59.988Z,56.85
2018-08-07T23:03:26.001Z,56.98
2018-08-07T23:05:52.012Z,56.98
2018-08-07T23:08:18.020Z,56.87
2018-08-07T23:10:44.029Z,56.92
2018-08-07T23:13:17.106Z,56.91
2018-08-07T23:15:43.112Z,56.89
2018-08-07T23:18:09.128Z,56.90
2018-08-07T23:20:35.138Z,56.92
2018-08-07T23:23:01.146Z,56.93
2018-08-07T23:25:27.166Z,57.01
2018-08-07T23:27:53.181Z,56.97
2018-08-07T23:30:19.237Z,57.04
2018-08-07T23:32:45.330Z,56.98
2018-08-07T23:35:11.333Z,56.96
2018-08-07T23:37:37.343Z,56.95
2018-08-07T23:40:03.364Z,57.04
2018-08-07T23:42:29.366Z,56.98
2018-08-07T23:44:55.369Z,57.01
2018-08-07T23:47:21.396Z,57.03
2018-08-07T23:49:47.430Z,57.04
2018-08-07T23:52:13.443Z,57.01
2018-08-07T23:54:39.450Z,57.06
2018-08-07T23:57:05.504Z,57.03
2018-08-07T23:59:31.516Z,57.05
